Skip Navigation Links
NOAA logo - Click to go to the NOAA homepage
NOAA's National Weather Service
Alaska Aviation Weather Unit
  NWS logo - Click to go to the NWS homepage
Left Navbar Graphic     15 AKDT = 23 GMT

   
NOAA is celebrating 200 years of science, service, and stewardship. Visit the NOAA 200th celebration Web site to learn more.
USA.gov is the U.S. Government's official Web portal to all Federal, state and local government Web resources and services.
Facebook
NWS on Facebook

Important Change Regarding the AAWU Web Presence

 

Over the last several months, the AAWU has been working to navigate its webpages to a nationally supported server. Security, as well as other needs, have necessitated the change.  We have been given an extension for the site changeover while we diligently work at addressing feedback received. As of July 14, 2017, aawu.arh.noaa.gov will be discontinued. The new AAWU web address is weather.gov/aawu. It is now live and will run in-parallel with the old site until it is discontinued on July 14, 2017. Please continue to send any feedback or questions regarding the new webpages to nws.ar.aawu.webauthors@noaa.gov.  Thank you for your patience during this time of transition.
AAWU Home :: Display TAF Add Bookmark
TAF PAGS 192327Z 2000/2024  VRB04KT P6SM SCT020 OVC050
     FM200300 12004KT P6SM VCSH BKN050 BKN080
     FM200900 10005KT 5SM -SHRA BR BKN025 OVC040
     FM201500 16004KT P6SM -SHRA SCT025 OVC040
      AMD LTD TO CLD VIS AND WIND=

7900
FTAK31 PAJN 192327
TAFAWG
TAF
METAR PAGS 191756Z AUTO 00000KT 10SM SCT110 02/02 A2898 RMK AO2 SLP813
     T00220022 10022 21017 51008 FZRANO=

METAR PAGS 191856Z AUTO 00000KT 10SM BKN070 OVC080 06/03 A2898 RMK AO2
     SLP815 T00610033=

SPECI PAGS 192017Z AUTO 11003KT 10SM BKN019 BKN070 08/03 A2900 RMK
     AO2=

SPECI PAGS 192044Z AUTO 12004KT 10SM FEW019 08/03 A2901 RMK AO2=

METAR PAGS 192156Z AUTO 18003KT 10SM CLR 08/02 A2902 RMK AO2 SLP827
 T00780022=

METAR PAGS 192256Z AUTO 18008KT 10SM BKN041 OVC070 07/03 A2903 RMK
 AO2 SLP832 T00720028=


NOAA's National Weather Service
Alaska Aviation Weather Unit
6930 Sand Lake Road
Anchorage, AK 99502-1845
Disclaimer
Credits
Glossary
Privacy Policy
About Us
Career Opportunities
Contact AAWU Internet Services Site last modified: April, 17th 2012